createdAt,value
2022-09-15T00:00:25.089Z,10.1
2022-09-15T00:05:25.113Z,10
2022-09-15T00:10:25.107Z,12.8
2022-09-15T00:15:25.103Z,9.4
2022-09-15T00:20:25.097Z,14.4
2022-09-15T00:25:25.109Z,15.3
2022-09-15T00:30:25.101Z,14.5
2022-09-15T00:35:25.113Z,12.7
2022-09-15T00:40:25.164Z,11.9
2022-09-15T00:45:25.155Z,14.1
2022-09-15T00:50:25.102Z,13.9
2022-09-15T00:55:25.106Z,13.5
2022-09-15T01:00:25.098Z,14.9
2022-09-15T01:05:25.114Z,11.1
2022-09-15T01:10:25.110Z,11.3
2022-09-15T01:15:25.120Z,13.7
2022-09-15T01:20:25.114Z,13.7
2022-09-15T01:25:25.106Z,11.2
2022-09-15T01:30:25.103Z,9.4
2022-09-15T01:35:25.110Z,9.4
2022-09-15T01:40:25.134Z,9.3
2022-09-15T01:45:25.120Z,11.9
2022-09-15T01:50:25.108Z,13.6
2022-09-15T01:55:25.119Z,9.6
2022-09-15T02:00:25.106Z,9
2022-09-15T02:05:25.106Z,15.8
2022-09-15T02:10:25.118Z,13.6
2022-09-15T02:15:25.105Z,13.7
2022-09-15T02:20:25.102Z,10.8
2022-09-15T02:25:25.112Z,10.1
2022-09-15T02:30:25.110Z,13.7
2022-09-15T02:35:25.105Z,10.8
2022-09-15T02:40:25.189Z,13.6
2022-09-15T02:45:25.220Z,11.9
2022-09-15T02:50:25.112Z,13.6
2022-09-15T02:55:25.107Z,10.9
2022-09-15T03:00:25.102Z,10.9
2022-09-15T03:05:25.105Z,10.9
2022-09-15T03:10:25.120Z,13.8
2022-09-15T03:15:25.111Z,13.8
2022-09-15T03:20:25.108Z,12.1
2022-09-15T03:25:25.130Z,11.1
2022-09-15T03:30:25.105Z,9.7
2022-09-15T03:35:25.108Z,8.9
2022-09-15T03:40:25.154Z,8.7
2022-09-15T03:45:25.159Z,6.5
2022-09-15T03:50:25.117Z,5.9
2022-09-15T03:55:25.117Z,5.9
2022-09-15T04:00:25.107Z,8.8
2022-09-15T04:05:25.111Z,9.6
2022-09-15T04:10:25.118Z,8.1
2022-09-15T04:15:25.116Z,8.9
2022-09-15T04:20:25.108Z,11.6
2022-09-15T04:25:25.114Z,9.5
2022-09-15T04:30:25.111Z,12
2022-09-15T04:35:25.114Z,15.5
2022-09-15T04:40:25.188Z,12
2022-09-15T04:45:25.116Z,16
2022-09-15T04:50:25.105Z,17.1
2022-09-15T04:55:25.116Z,15.4
2022-09-15T05:00:25.106Z,14.5
2022-09-15T05:05:25.116Z,12.6
2022-09-15T05:10:25.111Z,15.5
2022-09-15T05:15:25.125Z,15.7
2022-09-15T05:20:25.108Z,19.5
2022-09-15T05:25:25.109Z,18.8
2022-09-15T05:30:37.086Z,16.8
2022-09-15T05:35:25.108Z,18.5
2022-09-15T05:40:25.146Z,19.6
2022-09-15T05:45:25.108Z,15.3
2022-09-15T05:50:25.113Z,15.7
2022-09-15T05:55:25.107Z,11.1
2022-09-15T06:00:25.109Z,11.1
2022-09-15T06:05:25.119Z,18.5
2022-09-15T06:10:25.108Z,13.3
2022-09-15T06:15:25.119Z,16.2
2022-09-15T06:20:25.107Z,16.5
2022-09-15T06:25:25.109Z,14
2022-09-15T06:30:25.108Z,12.9
2022-09-15T06:35:25.121Z,12.9
2022-09-15T06:40:25.223Z,12.3
2022-09-15T06:45:25.114Z,14.1
2022-09-15T06:50:25.203Z,15.6
2022-09-15T06:55:25.114Z,15.6
2022-09-15T07:00:25.129Z,15
2022-09-15T07:05:25.104Z,17.5
2022-09-15T07:10:25.099Z,17.5
2022-09-15T07:15:25.131Z,21.5
2022-09-15T07:20:25.120Z,21.5
2022-09-15T07:25:25.116Z,15.2
2022-09-15T07:30:25.137Z,15.2
2022-09-15T07:35:25.106Z,15.9
2022-09-15T07:40:25.235Z,17.8
2022-09-15T07:45:25.205Z,12
2022-09-15T07:50:25.110Z,13.1
2022-09-15T07:55:25.116Z,13.5
2022-09-15T08:00:25.115Z,13.4
2022-09-15T08:05:25.115Z,13.9
2022-09-15T08:10:25.125Z,11.8
2022-09-15T08:15:25.110Z,9.7
2022-09-15T08:20:25.109Z,8.6
2022-09-15T08:25:25.123Z,11.6
2022-09-15T08:30:25.121Z,12.4
2022-09-15T08:35:25.106Z,11.5
2022-09-15T08:40:25.143Z,11.7
2022-09-15T08:45:25.121Z,15.2
2022-09-15T08:50:25.110Z,12.7
2022-09-15T08:55:25.113Z,14.1
2022-09-15T09:00:25.120Z,12.6
2022-09-15T09:05:25.121Z,11.4
2022-09-15T09:10:25.114Z,10.5
2022-09-15T09:15:25.146Z,13
2022-09-15T09:20:25.106Z,15.6
2022-09-15T09:25:27.868Z,16.3
2022-09-15T09:30:25.097Z,16.1
2022-09-15T09:35:25.108Z,20
2022-09-15T09:40:25.165Z,15.4
2022-09-15T09:45:25.100Z,16.7
2022-09-15T09:50:25.103Z,13.4
2022-09-15T09:55:25.103Z,14.7
2022-09-15T10:00:25.101Z,10
2022-09-15T10:05:25.111Z,15
2022-09-15T10:10:25.103Z,12.5
2022-09-15T10:15:25.111Z,13.3
2022-09-15T10:20:25.115Z,11.1
2022-09-15T10:25:32.607Z,12.3
2022-09-15T10:30:25.097Z,12.6
2022-09-15T10:35:25.103Z,18.3
2022-09-15T10:40:25.138Z,12.3
2022-09-15T10:45:25.125Z,13.6
2022-09-15T10:50:25.108Z,15.5
2022-09-15T10:55:42.445Z,20
2022-09-15T11:00:25.090Z,13.2
2022-09-15T11:05:25.125Z,15.7
2022-09-15T11:10:25.095Z,14.2
2022-09-15T11:15:25.111Z,14.8
2022-09-15T11:20:25.098Z,17.4
2022-09-15T11:25:25.098Z,16.5
2022-09-15T11:30:25.093Z,16.8
2022-09-15T11:35:25.110Z,13.7
2022-09-15T11:40:25.299Z,13.6
2022-09-15T11:45:25.110Z,12
2022-09-15T11:50:25.111Z,11.4
2022-09-15T11:55:25.106Z,11.4
2022-09-15T12:00:25.089Z,11.8
2022-09-15T12:05:25.112Z,17.5
2022-09-15T12:10:25.094Z,18.5
2022-09-15T12:15:25.109Z,18.5
2022-09-15T12:20:25.105Z,14.6
2022-09-15T12:25:25.105Z,14.6
2022-09-15T12:30:25.097Z,15.2
2022-09-15T12:35:25.111Z,15.2
2022-09-15T12:40:25.156Z,18.5
2022-09-15T12:45:25.101Z,16.5
2022-09-15T12:50:25.099Z,17.6
2022-09-15T12:55:25.103Z,9.6
2022-09-15T13:00:25.095Z,13.1
2022-09-15T13:05:25.111Z,21
2022-09-15T13:10:25.111Z,21
2022-09-15T13:15:25.112Z,16.7
2022-09-15T13:20:25.115Z,16.7
2022-09-15T13:25:25.111Z,20.5
2022-09-15T13:30:25.093Z,20.5
2022-09-15T13:35:25.109Z,27.4
2022-09-15T13:40:25.160Z,23.8
2022-09-15T13:45:25.104Z,19.9
2022-09-15T13:50:25.101Z,14.7
2022-09-15T13:55:25.103Z,20.5
2022-09-15T14:00:25.099Z,13.7
2022-09-15T14:05:25.112Z,20.4
2022-09-15T14:10:25.098Z,18
2022-09-15T14:15:25.120Z,15
2022-09-15T14:20:25.099Z,16.8
2022-09-15T14:25:25.110Z,18.7
2022-09-15T14:30:25.100Z,15.5
2022-09-15T14:35:25.092Z,13.6
2022-09-15T14:40:25.152Z,20
2022-09-15T14:50:27.122Z,18.4
2022-09-15T14:55:25.100Z,14.3
2022-09-15T15:00:25.095Z,15.9
2022-09-15T15:05:25.101Z,17.4
2022-09-15T15:10:25.102Z,16.1
2022-09-15T15:15:25.120Z,22.3
2022-09-15T15:20:25.101Z,24
2022-09-15T15:25:25.104Z,18.8
2022-09-15T15:30:25.102Z,18.8
2022-09-15T15:35:25.101Z,17.5
2022-09-15T15:40:25.179Z,19.9
2022-09-15T15:45:25.154Z,25.6
2022-09-15T15:50:25.087Z,19.3
2022-09-15T15:55:25.103Z,17.8
2022-09-15T16:00:25.094Z,13.9
2022-09-15T16:05:25.097Z,13.6
2022-09-15T16:10:25.103Z,12.4
2022-09-15T16:15:25.102Z,12.8
2022-09-15T16:20:25.108Z,9.2
2022-09-15T16:25:25.106Z,9.3
2022-09-15T16:30:25.103Z,11
2022-09-15T16:35:25.106Z,9.2
2022-09-15T16:40:25.135Z,8.7
2022-09-15T16:45:25.104Z,9
2022-09-15T16:50:25.133Z,10.9
2022-09-15T16:55:25.112Z,13
2022-09-15T17:00:25.153Z,11.7
2022-09-15T17:05:25.132Z,11.7
2022-09-15T17:10:25.128Z,12.7
2022-09-15T17:15:25.130Z,12.3
2022-09-15T17:20:25.129Z,15.7
2022-09-15T17:25:25.126Z,12.2
2022-09-15T17:30:25.101Z,11.1
2022-09-15T17:35:25.098Z,9
2022-09-15T17:40:25.162Z,9.8
2022-09-15T17:45:25.100Z,9.3
2022-09-15T17:50:25.096Z,8.6
2022-09-15T17:55:25.104Z,10.6
2022-09-15T18:00:25.101Z,7.3
2022-09-15T18:05:25.116Z,7
2022-09-15T18:10:25.103Z,7.3
2022-09-15T18:15:25.101Z,4
2022-09-15T18:20:25.096Z,4
2022-09-15T18:25:25.101Z,7.6
2022-09-15T18:30:25.094Z,10.8
2022-09-15T18:35:25.093Z,9.7
2022-09-15T18:40:25.149Z,9.1
2022-09-15T18:45:25.101Z,8
2022-09-15T18:50:25.098Z,7.3
2022-09-15T18:55:25.095Z,8.4
2022-09-15T19:00:25.092Z,8.2
2022-09-15T19:05:25.104Z,7.6
2022-09-15T19:10:25.099Z,8.7
2022-09-15T19:15:25.105Z,6.5
2022-09-15T19:20:25.110Z,6.3
2022-09-15T19:25:25.103Z,8.1
2022-09-15T19:30:25.099Z,7.3
2022-09-15T19:35:25.098Z,6.3
2022-09-15T19:40:25.142Z,8.4
2022-09-15T19:45:25.108Z,9.4
2022-09-15T19:50:25.090Z,9.5
2022-09-15T19:55:25.100Z,9.7
2022-09-15T20:00:25.090Z,9.4
2022-09-15T20:05:25.105Z,9
2022-09-15T20:10:25.103Z,9.8
2022-09-15T20:15:25.109Z,10.5
2022-09-15T20:20:25.104Z,8.9
2022-09-15T20:25:25.103Z,12.8
2022-09-15T20:30:25.124Z,10.7
2022-09-15T20:35:25.097Z,11.7
2022-09-15T20:40:25.104Z,10.2
2022-09-15T20:45:25.100Z,10.7
2022-09-15T20:50:25.108Z,11.9
2022-09-15T20:55:25.096Z,11.4
2022-09-15T21:00:25.095Z,11.3
2022-09-15T21:05:25.114Z,9.9
2022-09-15T21:10:25.106Z,11.5
2022-09-15T21:15:25.110Z,13.9
2022-09-15T21:20:25.094Z,11.3
2022-09-15T21:25:25.122Z,11
2022-09-15T21:30:25.101Z,9.8
2022-09-15T21:35:25.113Z,10.6
2022-09-15T21:40:25.190Z,10.5
2022-09-15T21:45:25.167Z,7.4
2022-09-15T21:50:25.100Z,8.2
2022-09-15T21:55:25.108Z,8.1
2022-09-15T22:00:25.095Z,6.7
2022-09-15T22:05:25.108Z,9.7
2022-09-15T22:10:25.103Z,11.5
2022-09-15T22:15:25.099Z,10.8
2022-09-15T22:20:25.101Z,9.9
2022-09-15T22:25:25.112Z,10.7
2022-09-15T22:30:25.096Z,10.5
2022-09-15T22:35:25.107Z,12.7
2022-09-15T22:40:25.164Z,10.9
2022-09-15T22:45:25.106Z,11.8
2022-09-15T22:50:25.102Z,10.9
2022-09-15T22:55:25.119Z,11.8
2022-09-15T23:00:25.096Z,12.3
2022-09-15T23:05:25.117Z,9.9
2022-09-15T23:10:25.120Z,11.6
2022-09-15T23:15:25.107Z,12.4
2022-09-15T23:20:25.127Z,13.8
2022-09-15T23:25:25.107Z,13.8
2022-09-15T23:30:25.107Z,11.7
2022-09-15T23:35:25.108Z,10.9
2022-09-15T23:40:25.126Z,11.6
2022-09-15T23:45:25.104Z,13.1
2022-09-15T23:50:25.101Z,13.1
2022-09-15T23:55:25.105Z,14.6
